Flight Track Log - Related Links

Times and Time Zones

All times are in EDT time to prevent confusion due to time zone crossing. See the N175PL flight status page for this flight to view local times or setup timezone preferences in your user account.

Time Position Orientation Groundspeed Altitude Reporting Facility
EDT Latitude Longitude Course Direction KTS MPH feet Rate Location/Type
Sat 06:58:32 PM 26.1808 -98.2097 38° Northeast 154 177 1,900  Level Houston Center
Sat 06:58:51 PM 26.1986 -98.2178 338° Northwest 175 201 2,900 2,836 Climbing Houston Center
Sat 06:59:27 PM 26.2094 -98.2433 295° West 177 204 4,500 2,806 Climbing Houston Center
Sat 06:59:53 PM 26.2211 -98.2622 305° West 161 185 5,800 1,655 Climbing Houston Center
Sat 07:00:54 PM 26.2558 -98.3125 308° West 215 247 6,900 1,707 Climbing Houston Center
Sat 07:01:56 PM 26.2986 -98.3506 321° Northwest 199 229 9,300 2,390 Climbing Houston Center
Sat 07:02:57 PM 26.3406 -98.3908 319° Northwest 187 215 11,800 1,317 Climbing Houston Center
Sat 07:03:59 PM 26.3864 -98.4344 320° Northwest 218 251 12,000 97 Climbing Houston Center
Sat 07:05:01 PM 26.4411 -98.4803 323° Northwest 242 278 12,000  Level Houston Center
Sat 07:06:02 PM 26.4989 -98.5328 321° Northwest 248 285 12,000  Level Houston Center
Sat 07:07:04 PM 26.5544 -98.5811 322° Northwest 251 289 12,000 -49 Level Houston Center
Sat 07:08:05 PM 26.6067 -98.6264 322° Northwest 251 289 11,900  Descending Houston Center
Sat 07:09:07 PM 26.6600 -98.6767 320° Northwest 250 288 12,000 49 Climbing Houston Center
Sat 07:10:08 PM 26.7150 -98.7258 321° Northwest 252 290 12,000 -49 Level Houston Center
Sat 07:11:10 PM 26.7703 -98.7764 321° Northwest 254 292 11,900  Descending Houston Center
Sat 07:12:11 PM 26.8244 -98.8264 321° Northwest 253 291 12,000 49 Climbing Houston Center
Sat 07:13:13 PM 26.8903 -98.8861 321° Northwest 254 292 12,000  Level Houston Center
Sat 07:14:14 PM 26.9447 -98.9347 321° Northwest 252 290 12,000 -148 Level Houston Center
Sat 07:15:15 PM 27.0006 -98.9844 322° Northwest 253 291 11,700 -537 Descending Houston Center
Sat 07:16:17 PM 27.0586 -99.0372 321° Northwest 259 298 10,900 -927 Descending Houston Center
Sat 07:17:18 PM 27.1186 -99.0908 322° Northwest 267 307 9,800 -1,073 Descending Houston Center
Sat 07:18:20 PM 27.1775 -99.1442 321° Northwest 270 311 8,700 -1,073 Descending Houston Center
Sat 07:19:21 PM 27.2286 -99.1881 323° Northwest 250 288 7,600 -885 Descending Houston Center
Sat 07:20:22 PM 27.2781 -99.2081 340° North 214 246 6,900 -1,073 Descending Houston Center
Sat 07:21:24 PM 27.3339 -99.2108 357° North 202 232 5,400 -1,317 Descending Houston Center
Sat 07:22:25 PM 27.3967 -99.2175 355° North 212 244 4,200 -738 Descending Houston Center
Sat 07:23:26 PM 27.4611 -99.2256 354° North 223 257 3,900 -98 Descending Houston Center
Sat 07:24:28 PM 27.5381 -99.2333 355° North 227 261 4,000 49 Climbing Houston Center
Sat 07:25:29 PM 27.6003 -99.2414 353° North 226 260 4,000 -49 Level Houston Center
Sat 07:26:30 PM 27.6644 -99.2478 355° North 227 261 3,900 -49 Descending Houston Center
Sat 07:27:32 PM 27.7269 -99.2542 355° North 227 261 3,900 49 Level Houston Center
Sat 07:28:33 PM 27.7867 -99.2694 347° North 235 270 4,000  Climbing Houston Center
Sat 07:29:34 PM 27.7889 -99.3328 272° West 215 247 3,900 -49 Descending Houston Center
Sat 07:30:35 PM 27.7875 -99.3928 269° West 202 232 3,900  Level Houston Center
Sat 07:31:37 PM 27.7600 -99.4358 234° Southwest 198 228 3,900 -341 Level Houston Center
Sat 07:32:38 PM 27.7161 -99.4536 200° South 176 203 3,200 -590 Descending Houston Center
Sat 07:33:39 PM 27.6683 -99.4567 183° South 174 200 2,700 -732 Descending Houston Center
Sat 07:34:41 PM 27.6169 -99.4589 182° South 162 186 1,700 -732 Descending Houston Center
Sat 07:35:42 PM 27.5872 -99.4614 184° South 134 154 1,200 -541 Descending Houston Center
Sat 07:36:43 PM 27.5594 -99.4622 182° South 112 129 600 -590 Descending Houston Center

Login

Don't have an account? Register now (free) for customized features, flight alerts, and more!